createdAt,value
2018-11-29T00:00:37.543Z,39.57
2018-11-29T00:03:07.507Z,37.67
2018-11-29T00:05:40.619Z,42.53
2018-11-29T00:08:09.268Z,40.90
2018-11-29T00:10:37.752Z,38.97
2018-11-29T00:13:06.541Z,38.87
2018-11-29T00:15:35.382Z,37.80
2018-11-29T00:18:04.075Z,39.00
2018-11-29T00:20:33.378Z,40.37
2018-11-29T00:23:05.923Z,36.00
2018-11-29T00:25:34.371Z,39.47
2018-11-29T00:28:05.426Z,39.53
2018-11-29T00:30:33.919Z,41.50
2018-11-29T00:33:02.426Z,40.70
2018-11-29T00:35:30.954Z,39.80
2018-11-29T00:37:59.414Z,42.67
2018-11-29T00:40:27.921Z,42.80
2018-11-29T00:42:56.364Z,38.87
2018-11-29T00:45:24.903Z,43.07
2018-11-29T00:47:53.480Z,47.00
2018-11-29T00:50:22.251Z,42.93
2018-11-29T00:52:51.507Z,43.90
2018-11-29T00:55:23.795Z,44.73
2018-11-29T00:57:53.115Z,41.40
2018-11-29T01:00:24.755Z,47.30
2018-11-29T01:02:53.483Z,43.93
2018-11-29T01:05:21.968Z,41.83
2018-11-29T01:07:50.484Z,44.70
2018-11-29T01:10:19.387Z,41.37
2018-11-29T01:12:48.507Z,44.63
2018-11-29T01:15:17.917Z,42.30
2018-11-29T01:17:47.339Z,43.07
2018-11-29T01:20:17.250Z,43.20
2018-11-29T01:22:45.782Z,40.90
2018-11-29T01:25:15.128Z,43.17
2018-11-29T01:27:46.553Z,42.17
2018-11-29T01:30:17.903Z,44.83
2018-11-29T01:32:46.419Z,42.80
2018-11-29T01:35:16.193Z,43.07
2018-11-29T01:37:44.703Z,44.70
2018-11-29T01:40:18.728Z,45.23
2018-11-29T01:42:48.598Z,42.13
2018-11-29T01:45:17.127Z,47.60
2018-11-29T01:47:45.669Z,47.33
2018-11-29T01:50:14.159Z,46.17
2018-11-29T01:52:42.631Z,44.17
2018-11-29T01:55:14.904Z,43.10
2018-11-29T01:57:43.391Z,43.33
2018-11-29T02:00:15.792Z,46.63
2018-11-29T02:02:45.337Z,46.83
2018-11-29T02:05:13.841Z,42.73
2018-11-29T02:07:42.331Z,43.10
2018-11-29T02:10:18.257Z,45.70
2018-11-29T02:12:46.835Z,47.10
2018-11-29T02:15:15.402Z,45.97
2018-11-29T02:17:43.918Z,47.43
2018-11-29T02:20:14.016Z,45.30
2018-11-29T02:22:42.599Z,44.70
2018-11-29T02:25:11.168Z,47.73
2018-11-29T02:27:43.452Z,46.67
2018-11-29T02:30:13.519Z,47.87
2018-11-29T02:32:42.044Z,51.47
2018-11-29T02:35:10.508Z,46.80
2018-11-29T02:37:39.023Z,46.83
2018-11-29T02:40:11.241Z,48.53
2018-11-29T02:42:40.127Z,46.07
2018-11-29T02:45:11.067Z,46.17
2018-11-29T02:47:39.584Z,45.90
2018-11-29T02:50:09.263Z,47.27
2018-11-29T02:52:37.765Z,48.23
2018-11-29T02:55:11.485Z,47.40
2018-11-29T02:57:40.336Z,44.23
2018-11-29T03:00:16.927Z,47.70
2018-11-29T03:02:45.455Z,46.93
2018-11-29T03:05:14.175Z,52.17
2018-11-29T03:07:44.677Z,45.97
2018-11-29T03:10:14.264Z,56.00
2018-11-29T03:12:43.284Z,51.63
2018-11-29T03:15:14.000Z,52.17
2018-11-29T03:17:43.075Z,53.23
2018-11-29T03:20:13.562Z,52.53
2018-11-29T03:22:42.352Z,52.03
2018-11-29T03:25:18.517Z,53.83
2018-11-29T03:27:47.196Z,56.90
2018-11-29T03:30:21.844Z,48.87
2018-11-29T03:32:50.367Z,50.00
2018-11-29T03:35:18.811Z,51.33
2018-11-29T03:37:47.265Z,54.37
2018-11-29T03:40:16.512Z,51.17
2018-11-29T03:42:45.760Z,53.00
2018-11-29T03:45:15.296Z,50.77
2018-11-29T03:47:44.483Z,54.00
2018-11-29T03:50:15.200Z,49.27
2018-11-29T03:52:43.711Z,53.60
2018-11-29T03:55:12.234Z,51.00
2018-11-29T03:57:46.436Z,54.77
2018-11-29T04:00:16.754Z,54.87
2018-11-29T04:02:47.218Z,51.80
2018-11-29T04:05:15.715Z,54.13
2018-11-29T04:09:13.642Z,55.00
2018-11-29T04:11:42.124Z,52.30
2018-11-29T04:14:10.597Z,55.10
2018-11-29T04:16:39.107Z,54.77
2018-11-29T04:19:11.247Z,48.57
2018-11-29T04:21:39.696Z,54.57
2018-11-29T04:24:11.679Z,50.63
2018-11-29T04:26:40.128Z,49.27
2018-11-29T04:29:08.616Z,53.67
2018-11-29T04:31:37.113Z,50.33
2018-11-29T04:34:07.591Z,52.10
2018-11-29T04:36:36.076Z,51.77
2018-11-29T04:39:08.183Z,51.13
2018-11-29T04:41:36.907Z,51.20
2018-11-29T04:44:05.392Z,52.47
2018-11-29T04:46:42.737Z,54.73
2018-11-29T04:49:11.395Z,51.10
2018-11-29T04:51:40.055Z,52.03
2018-11-29T04:54:09.282Z,55.63
2018-11-29T04:56:37.828Z,62.63
2018-11-29T04:59:06.680Z,59.67
2018-11-29T05:01:35.348Z,73.90
2018-11-29T05:04:03.901Z,70.43
2018-11-29T05:06:32.419Z,80.27
2018-11-29T05:09:00.976Z,78.60
2018-11-29T05:11:29.443Z,85.43
2018-11-29T05:13:57.923Z,86.83
2018-11-29T05:16:27.447Z,92.13
2018-11-29T05:18:55.921Z,85.13
2018-11-29T05:21:24.428Z,79.03
2018-11-29T05:23:52.931Z,74.77
2018-11-29T05:26:21.432Z,76.03
2018-11-29T05:28:49.879Z,66.20
2018-11-29T05:31:21.968Z,64.90
2018-11-29T05:33:50.466Z,64.10
2018-11-29T05:36:18.927Z,59.03
2018-11-29T05:38:47.467Z,56.20
2018-11-29T05:41:15.953Z,50.47
2018-11-29T05:43:44.431Z,53.17
2018-11-29T05:46:12.952Z,55.03
2018-11-29T05:48:41.407Z,52.37
2018-11-29T05:51:09.887Z,55.00
2018-11-29T05:53:38.331Z,54.03
2018-11-29T05:56:07.363Z,53.87
2018-11-29T05:58:35.856Z,52.07
2018-11-29T06:01:07.003Z,57.57
2018-11-29T06:03:35.496Z,51.33
2018-11-29T06:06:04.015Z,58.63
2018-11-29T06:08:32.476Z,54.23
2018-11-29T06:11:00.947Z,56.40
2018-11-29T06:13:29.691Z,64.17
2018-11-29T06:15:58.144Z,61.00
2018-11-29T06:18:26.618Z,55.13
2018-11-29T06:20:55.059Z,55.47
2018-11-29T06:23:23.543Z,52.53
2018-11-29T06:25:55.712Z,52.77
2018-11-29T06:28:24.199Z,48.47
2018-11-29T06:30:52.692Z,47.20
2018-11-29T06:33:21.197Z,45.80
2018-11-29T06:35:50.709Z,47.17
2018-11-29T06:38:19.231Z,44.87
2018-11-29T06:40:47.691Z,47.17
2018-11-29T06:43:16.183Z,48.27
2018-11-29T06:45:44.695Z,47.07
2018-11-29T06:48:13.131Z,47.57
2018-11-29T06:50:41.631Z,47.70
2018-11-29T06:55:47.567Z,46.87
2018-11-29T06:58:16.933Z,53.57
2018-11-29T07:00:44.616Z,48.23
2018-11-29T07:03:13.071Z,51.00
2018-11-29T07:05:41.536Z,52.17
2018-11-29T07:08:10.028Z,48.23
2018-11-29T07:10:38.596Z,49.03
2018-11-29T07:13:18.207Z,56.50
2018-11-29T07:15:47.741Z,57.70
2018-11-29T07:18:35.172Z,52.97
2018-11-29T07:21:16.935Z,50.47
2018-11-29T07:26:38.263Z,55.63
2018-11-29T07:32:17.755Z,56.83
2018-11-29T07:34:57.055Z,57.93
2018-11-29T07:37:33.595Z,63.53
2018-11-29T07:40:27.127Z,64.63
2018-11-29T07:42:59.786Z,64.70
2018-11-29T07:45:34.830Z,63.37
2018-11-29T07:51:09.732Z,67.77
2018-11-29T07:53:52.240Z,64.93
2018-11-29T07:56:20.763Z,66.73
2018-11-29T07:58:56.199Z,63.50
2018-11-29T08:04:23.467Z,60.53
2018-11-29T08:12:55.704Z,61.67
2018-11-29T08:15:25.244Z,63.10
2018-11-29T08:17:54.748Z,62.67
2018-11-29T08:20:43.592Z,58.83
2018-11-29T08:23:12.043Z,58.57
2018-11-29T08:25:40.524Z,62.13
2018-11-29T08:28:09.071Z,63.53
2018-11-29T08:30:55.039Z,65.70
2018-11-29T08:33:33.359Z,63.30
2018-11-29T08:36:01.971Z,67.23
2018-11-29T08:38:30.518Z,61.13
2018-11-29T08:41:02.240Z,63.00
2018-11-29T08:43:30.733Z,57.03
2018-11-29T08:46:02.688Z,61.23
2018-11-29T08:48:31.181Z,62.33
2018-11-29T08:50:59.671Z,62.97
2018-11-29T08:53:28.300Z,58.10
2018-11-29T08:55:56.849Z,59.73
2018-11-29T08:58:25.322Z,59.03
2018-11-29T09:00:57.095Z,63.20
2018-11-29T09:03:25.584Z,54.37
2018-11-29T09:05:54.057Z,58.53
2018-11-29T09:08:26.420Z,53.67
2018-11-29T09:11:11.008Z,59.03
2018-11-29T09:13:56.859Z,53.83
2018-11-29T09:19:31.124Z,58.30
2018-11-29T09:22:17.995Z,58.07
2018-11-29T09:25:08.196Z,58.37
2018-11-29T09:27:37.072Z,55.03
2018-11-29T09:30:17.462Z,62.83
2018-11-29T09:32:46.695Z,56.83
2018-11-29T09:35:15.296Z,52.77
2018-11-29T09:37:46.836Z,56.77
2018-11-29T09:40:16.365Z,56.33
2018-11-29T09:42:51.516Z,52.53
2018-11-29T09:45:32.828Z,59.10
2018-11-29T09:48:01.306Z,52.23
2018-11-29T09:50:33.410Z,54.73
2018-11-29T09:54:32.083Z,61.40
2018-11-29T09:57:00.587Z,58.30
2018-11-29T09:59:29.036Z,51.23
2018-11-29T10:01:57.516Z,54.83
2018-11-29T10:04:25.976Z,57.13
2018-11-29T10:06:54.452Z,52.37
2018-11-29T10:09:26.024Z,53.90
2018-11-29T10:12:04.388Z,50.43
2018-11-29T10:14:38.976Z,53.53
2018-11-29T10:20:09.300Z,50.37
2018-11-29T10:22:55.852Z,47.70
2018-11-29T10:28:35.112Z,46.40
2018-11-29T10:31:08.004Z,45.77
2018-11-29T10:33:40.575Z,48.43
2018-11-29T10:39:05.112Z,44.17
2018-11-29T10:41:44.088Z,42.70
2018-11-29T10:44:14.584Z,43.60
2018-11-29T10:46:54.460Z,44.73
2018-11-29T10:49:24.977Z,41.70
2018-11-29T10:52:03.117Z,37.80
2018-11-29T10:54:32.687Z,39.37
2018-11-29T10:57:08.179Z,44.13
2018-11-29T10:59:37.740Z,32.00
2018-11-29T11:02:12.002Z,32.10
2018-11-29T11:04:43.816Z,32.30
2018-11-29T11:07:15.727Z,32.43
2018-11-29T11:09:45.267Z,30.37
2018-11-29T11:12:13.806Z,28.07
2018-11-29T11:14:42.288Z,27.90
2018-11-29T11:17:10.716Z,29.90
2018-11-29T11:19:39.188Z,27.37
2018-11-29T11:22:07.679Z,25.73
2018-11-29T11:24:45.789Z,24.10
2018-11-29T11:27:14.240Z,26.97
2018-11-29T11:29:42.719Z,28.10
2018-11-29T11:32:11.172Z,23.20
2018-11-29T11:34:39.643Z,28.77
2018-11-29T11:37:08.127Z,25.80
2018-11-29T11:39:36.618Z,25.27
2018-11-29T11:42:06.076Z,24.77
2018-11-29T11:44:34.580Z,23.07
2018-11-29T11:47:03.021Z,24.57
2018-11-29T11:49:31.651Z,24.63
2018-11-29T11:52:00.124Z,26.17
2018-11-29T11:54:28.585Z,28.73
2018-11-29T11:56:57.032Z,23.43
2018-11-29T11:59:25.507Z,25.43
2018-11-29T12:01:53.996Z,22.90
2018-11-29T12:04:22.544Z,23.60
2018-11-29T12:06:50.980Z,22.00
2018-11-29T12:09:19.428Z,19.57
2018-11-29T12:11:48.116Z,26.87
2018-11-29T12:14:16.595Z,22.17
2018-11-29T12:16:45.071Z,21.03
2018-11-29T12:19:13.530Z,21.03
2018-11-29T12:21:42.024Z,19.77
2018-11-29T12:24:10.543Z,24.57
2018-11-29T12:26:39.021Z,21.10
2018-11-29T12:29:07.767Z,19.47
2018-11-29T12:31:36.241Z,18.60
2018-11-29T12:34:04.855Z,20.00
2018-11-29T12:36:33.355Z,18.70
2018-11-29T12:39:01.796Z,19.50
2018-11-29T12:41:30.293Z,21.40
2018-11-29T12:43:58.736Z,20.60
2018-11-29T12:46:27.257Z,21.03
2018-11-29T12:48:55.735Z,24.80
2018-11-29T12:51:24.278Z,19.83
2018-11-29T12:53:52.719Z,18.37
2018-11-29T12:56:21.208Z,20.23
2018-11-29T12:58:49.702Z,20.07
2018-11-29T13:01:18.187Z,17.00
2018-11-29T13:03:46.765Z,18.97
2018-11-29T13:06:15.314Z,17.73
2018-11-29T13:08:43.808Z,19.47
2018-11-29T13:11:12.269Z,19.00
2018-11-29T13:13:40.801Z,19.50
2018-11-29T13:16:09.236Z,19.93
2018-11-29T13:18:37.727Z,18.00
2018-11-29T13:21:06.227Z,18.90
2018-11-29T13:23:34.897Z,19.77
2018-11-29T13:26:03.396Z,23.73
2018-11-29T13:28:31.880Z,19.97
2018-11-29T13:31:00.375Z,19.37
2018-11-29T13:33:28.805Z,18.60
2018-11-29T13:35:57.255Z,18.37
2018-11-29T13:38:25.779Z,17.83
2018-11-29T13:40:54.243Z,17.93
2018-11-29T13:43:22.726Z,18.33
2018-11-29T13:45:51.227Z,17.53
2018-11-29T13:48:19.750Z,18.97
2018-11-29T13:50:49.442Z,17.83
2018-11-29T13:53:17.907Z,29.80
2018-11-29T13:55:47.278Z,22.27
2018-11-29T13:58:14.917Z,18.60
2018-11-29T14:00:43.468Z,20.30
2018-11-29T14:03:13.296Z,18.83
2018-11-29T14:05:41.827Z,20.97
2018-11-29T14:08:12.346Z,18.90
2018-11-29T14:10:42.156Z,19.37
2018-11-29T14:13:10.925Z,21.73
2018-11-29T14:15:39.556Z,17.73
2018-11-29T14:18:08.371Z,22.93
2018-11-29T14:20:38.918Z,20.77
2018-11-29T14:23:07.684Z,18.90
2018-11-29T14:25:36.170Z,19.83
2018-11-29T14:28:04.964Z,20.90
2018-11-29T14:30:33.564Z,22.47
2018-11-29T14:33:02.297Z,19.00
2018-11-29T14:35:34.308Z,20.13
2018-11-29T14:38:02.840Z,21.53
2018-11-29T14:40:33.813Z,19.97
2018-11-29T14:43:02.286Z,21.97
2018-11-29T14:45:30.750Z,18.83
2018-11-29T14:47:59.239Z,22.63
2018-11-29T14:50:35.348Z,23.10
2018-11-29T14:53:03.856Z,20.90
2018-11-29T14:55:32.448Z,18.13
2018-11-29T14:58:04.451Z,19.60
2018-11-29T15:00:32.900Z,18.83
2018-11-29T15:03:03.075Z,18.83
2018-11-29T15:05:32.230Z,23.57
2018-11-29T15:08:00.719Z,21.13
2018-11-29T15:11:32.667Z,21.17
2018-11-29T15:14:01.208Z,19.07
2018-11-29T15:16:29.680Z,21.03
2018-11-29T15:19:01.521Z,21.60
2018-11-29T15:21:30.035Z,19.67
2018-11-29T15:24:04.676Z,20.17
2018-11-29T15:26:33.134Z,22.37
2018-11-29T15:29:05.467Z,21.47
2018-11-29T15:31:33.976Z,22.43
2018-11-29T15:34:02.448Z,22.03
2018-11-29T15:36:36.780Z,20.13
2018-11-29T15:39:08.108Z,23.53
2018-11-29T15:41:36.866Z,19.63
2018-11-29T15:44:05.391Z,21.47
2018-11-29T15:46:33.832Z,22.80
2018-11-29T15:49:07.207Z,21.57
2018-11-29T15:51:35.815Z,19.53
2018-11-29T15:54:04.453Z,22.07
2018-11-29T15:56:33.924Z,21.07
2018-11-29T15:59:02.407Z,19.57
2018-11-29T16:01:30.836Z,20.80
2018-11-29T16:03:59.308Z,22.97
2018-11-29T16:06:27.755Z,20.93
2018-11-29T16:08:59.555Z,20.93
2018-11-29T16:11:28.023Z,21.77
2018-11-29T16:13:57.736Z,22.17
2018-11-29T16:16:26.218Z,18.87
2018-11-29T16:18:55.403Z,21.07
2018-11-29T16:21:24.405Z,22.20
2018-11-29T16:23:53.479Z,20.20
2018-11-29T16:26:22.492Z,20.93
2018-11-29T16:28:51.431Z,22.03
2018-11-29T16:31:20.003Z,21.23
2018-11-29T16:33:48.585Z,21.63
2018-11-29T16:36:17.193Z,21.33
2018-11-29T16:38:45.763Z,20.43
2018-11-29T16:41:14.356Z,22.97
2018-11-29T16:43:44.028Z,22.30
2018-11-29T16:46:12.680Z,21.43
2018-11-29T16:48:41.176Z,21.13
2018-11-29T16:51:09.672Z,21.43
2018-11-29T16:53:38.214Z,21.40
2018-11-29T16:56:08.755Z,22.80
2018-11-29T16:58:37.219Z,22.60
2018-11-29T17:01:08.888Z,20.70
2018-11-29T17:03:34.869Z,23.47
2018-11-29T17:06:03.329Z,20.50
2018-11-29T17:08:31.781Z,21.07
2018-11-29T17:11:00.272Z,21.23
2018-11-29T17:13:28.855Z,20.00
2018-11-29T17:15:57.421Z,21.27
2018-11-29T17:18:25.895Z,21.90
2018-11-29T17:20:54.371Z,22.77
2018-11-29T17:23:22.909Z,20.93
2018-11-29T17:25:51.432Z,21.67
2018-11-29T17:28:19.953Z,22.00
2018-11-29T17:30:48.564Z,23.60
2018-11-29T17:33:17.081Z,20.43
2018-11-29T17:35:45.603Z,22.53
2018-11-29T17:38:14.185Z,20.60
2018-11-29T17:40:42.719Z,21.67
2018-11-29T17:43:11.265Z,20.53
2018-11-29T17:45:39.819Z,21.40
2018-11-29T17:48:10.861Z,23.53
2018-11-29T17:50:40.639Z,20.27
2018-11-29T17:53:09.579Z,20.27
2018-11-29T17:55:38.367Z,20.90
2018-11-29T17:58:10.712Z,21.67
2018-11-29T18:00:39.559Z,20.23
2018-11-29T18:03:09.419Z,21.30
2018-11-29T18:05:37.930Z,19.27
2018-11-29T18:08:06.471Z,19.47
2018-11-29T18:10:36.903Z,22.33
2018-11-29T18:13:10.581Z,19.87
2018-11-29T18:15:39.157Z,20.87
2018-11-29T18:18:07.668Z,19.77
2018-11-29T18:20:36.445Z,18.67
2018-11-29T18:23:07.111Z,20.70
2018-11-29T18:25:35.656Z,21.33
2018-11-29T18:28:08.885Z,21.17
2018-11-29T18:30:37.415Z,20.93
2018-11-29T18:33:06.856Z,19.60
2018-11-29T18:35:35.827Z,21.43
2018-11-29T18:38:08.906Z,18.40
2018-11-29T18:40:37.435Z,18.83
2018-11-29T18:45:58.993Z,20.23
2018-11-29T18:48:27.555Z,19.93
2018-11-29T18:50:58.096Z,19.03
2018-11-29T18:53:27.606Z,20.83
2018-11-29T18:56:00.659Z,18.87
2018-11-29T18:58:29.952Z,17.67
2018-11-29T19:01:00.529Z,18.70
2018-11-29T19:03:37.010Z,20.70
2018-11-29T19:09:02.809Z,20.20
2018-11-29T19:11:37.796Z,20.27
2018-11-29T19:14:10.072Z,22.13
2018-11-29T19:16:38.684Z,18.53
2018-11-29T19:19:12.557Z,19.90
2018-11-29T19:21:43.053Z,20.57
2018-11-29T19:24:11.631Z,20.90
2018-11-29T19:26:40.208Z,21.00
2018-11-29T19:29:11.383Z,19.07
2018-11-29T19:31:44.460Z,19.43
2018-11-29T19:34:15.012Z,19.07
2018-11-29T19:36:44.365Z,21.27
2018-11-29T19:39:19.003Z,21.57
2018-11-29T19:41:47.613Z,20.23
2018-11-29T19:44:22.308Z,19.73
2018-11-29T19:46:52.200Z,22.23
2018-11-29T19:49:32.450Z,19.80
2018-11-29T19:52:05.717Z,22.10
2018-11-29T19:54:36.489Z,19.97
2018-11-29T19:57:06.444Z,19.53
2018-11-29T19:59:36.174Z,19.47
2018-11-29T20:02:05.064Z,20.80
2018-11-29T20:04:38.004Z,21.23
2018-11-29T20:07:14.845Z,20.43
2018-11-29T20:10:03.762Z,23.87
2018-11-29T20:12:33.420Z,20.33
2018-11-29T20:15:09.419Z,21.77
2018-11-29T20:17:37.910Z,23.17
2018-11-29T20:20:08.504Z,21.40
2018-11-29T20:22:37.382Z,20.77
2018-11-29T20:25:15.060Z,24.93
2018-11-29T20:27:49.399Z,22.97
2018-11-29T20:30:19.196Z,20.53
2018-11-29T20:32:48.761Z,20.50
2018-11-29T20:35:18.531Z,19.90
2018-11-29T20:37:48.253Z,23.97
2018-11-29T20:40:25.155Z,21.17
2018-11-29T20:42:55.494Z,27.00
2018-11-29T20:45:35.858Z,24.07
2018-11-29T20:48:09.666Z,21.90
2018-11-29T20:50:38.374Z,21.57
2018-11-29T20:53:08.379Z,23.60
2018-11-29T20:55:37.386Z,23.63
2018-11-29T20:58:08.384Z,24.57
2018-11-29T21:00:37.719Z,21.40
2018-11-29T21:03:07.525Z,24.43
2018-11-29T21:05:37.125Z,23.30
2018-11-29T21:08:07.036Z,23.00
2018-11-29T21:10:36.687Z,22.57
2018-11-29T21:13:05.669Z,23.43
2018-11-29T21:15:38.427Z,22.43
2018-11-29T21:18:08.976Z,21.83
2018-11-29T21:20:38.030Z,21.97
2018-11-29T21:23:08.413Z,24.20
2018-11-29T21:25:37.022Z,20.63
2018-11-29T21:28:06.784Z,22.83
2018-11-29T21:30:35.763Z,24.20
2018-11-29T21:33:04.755Z,22.27
2018-11-29T21:35:33.380Z,24.50
2018-11-29T21:38:12.139Z,25.77
2018-11-29T21:40:41.847Z,22.90
2018-11-29T21:43:10.348Z,22.47
2018-11-29T21:45:39.016Z,22.00
2018-11-29T21:48:07.483Z,23.50
2018-11-29T21:50:35.940Z,23.73
2018-11-29T21:53:04.452Z,24.53
2018-11-29T21:55:32.904Z,23.23
2018-11-29T21:58:01.391Z,22.07
2018-11-29T22:00:29.905Z,21.57
2018-11-29T22:02:59.364Z,21.53
2018-11-29T22:05:27.905Z,21.57
2018-11-29T22:07:56.476Z,21.33
2018-11-29T22:10:24.962Z,22.00
2018-11-29T22:12:53.432Z,23.30
2018-11-29T22:15:21.919Z,21.10
2018-11-29T22:18:01.685Z,22.73
2018-11-29T22:20:28.543Z,22.50
2018-11-29T22:22:56.984Z,21.80
2018-11-29T22:25:25.481Z,21.87
2018-11-29T22:27:57.316Z,22.27
2018-11-29T22:30:25.837Z,20.90
2018-11-29T22:32:54.300Z,22.17
2018-11-29T22:35:22.862Z,22.97
2018-11-29T22:37:51.343Z,22.57
2018-11-29T22:40:19.951Z,22.87
2018-11-29T22:42:48.392Z,23.07
2018-11-29T22:45:16.967Z,22.13
2018-11-29T22:47:45.419Z,22.83
2018-11-29T22:50:13.920Z,21.03
2018-11-29T22:52:42.400Z,23.10
2018-11-29T22:55:10.906Z,23.37
2018-11-29T22:57:39.347Z,21.43
2018-11-29T23:00:11.598Z,20.80
2018-11-29T23:02:40.391Z,22.67
2018-11-29T23:05:09.482Z,22.00
2018-11-29T23:07:38.008Z,21.97
2018-11-29T23:10:08.476Z,19.70
2018-11-29T23:12:36.935Z,22.43
2018-11-29T23:15:06.776Z,21.73
2018-11-29T23:17:35.249Z,20.60
2018-11-29T23:20:04.552Z,19.17
2018-11-29T23:22:33.091Z,21.73
2018-11-29T23:25:01.599Z,21.67
2018-11-29T23:27:34.003Z,19.40
2018-11-29T23:30:02.559Z,21.60
2018-11-29T23:32:31.051Z,20.93
2018-11-29T23:34:59.544Z,20.87
2018-11-29T23:37:27.995Z,20.77
2018-11-29T23:39:56.505Z,21.10
2018-11-29T23:44:49.556Z,21.20
2018-11-29T23:47:18.004Z,19.47
2018-11-29T23:49:46.495Z,18.90
2018-11-29T23:52:14.978Z,20.60
2018-11-29T23:54:43.499Z,20.40
2018-11-29T23:57:11.959Z,20.97
2018-11-29T23:59:40.444Z,19.57
